Time;durP1;ratioP1;P1;durP2;ratioP2;P2;SDS_P1;SDS_P2;PMS_P1;PMS_P2;Temp;Humidity;BMP_temperature;BMP_pressure;BME280_temperature;BME280_humidity;BME280_pressure;Samples;Min_cycle;Max_cycle;Signal;HPM_P1;HPM_P2
2021/03/30 00:00:23;;;;;;;29.10;19.25;;;16.10;64.80;;;;;;5035907;28;20025;-67
2021/03/30 00:02:49;;;;;;;33.80;20.70;;;16.00;64.30;;;;;;5035990;28;20100;-67
2021/03/30 00:05:15;;;;;;;40.08;21.10;;;16.00;64.00;;;;;;5035968;28;20104;-69
2021/03/30 00:07:41;;;;;;;36.35;20.83;;;16.00;63.50;;;;;;5036143;28;20109;-70
2021/03/30 00:10:12;;;;;;;34.42;22.63;;;16.00;63.20;;;;;;5034454;28;20121;-71
2021/03/30 00:12:42;;;;;;;34.90;21.73;;;15.80;63.10;;;;;;5035952;28;20040;-71
2021/03/30 00:15:11;;;;;;;32.22;22.40;;;15.80;63.40;;;;;;5035544;28;20100;-71
2021/03/30 00:17:37;;;;;;;32.42;21.60;;;15.80;63.10;;;;;;5035797;28;20033;-70
2021/03/30 00:20:11;;;;;;;33.90;20.27;;;15.70;63.10;;;;;;5035805;28;20033;-68
2021/03/30 00:22:37;;;;;;;31.67;22.05;;;15.80;62.90;;;;;;5035751;28;20421;-70
2021/03/30 00:25:04;;;;;;;32.38;20.80;;;15.70;62.50;;;;;;5035803;28;20356;-70
2021/03/30 00:27:30;;;;;;;33.35;20.70;;;15.70;62.60;;;;;;5034056;28;20386;-70
2021/03/30 00:29:56;;;;;;;30.02;19.60;;;15.60;62.50;;;;;;5035387;28;20022;-69
2021/03/30 00:32:21;;;;;;;29.45;19.23;;;15.70;62.50;;;;;;5035394;28;20034;-69
2021/03/30 00:34:47;;;;;;;29.48;19.25;;;15.70;62.10;;;;;;5035458;28;20018;-69
2021/03/30 00:37:13;;;;;;;26.40;16.63;;;15.60;61.90;;;;;;5035203;28;20501;-68
2021/03/30 00:39:38;;;;;;;27.60;16.75;;;15.50;61.40;;;;;;5035192;28;20029;-70
2021/03/30 00:42:05;;;;;;;27.08;15.75;;;15.40;61.40;;;;;;5035145;28;20075;-71
2021/03/30 00:44:31;;;;;;;28.40;16.05;;;15.40;61.40;;;;;;5035224;28;20025;-68
2021/03/30 00:46:58;;;;;;;27.48;15.10;;;15.40;61.30;;;;;;5035323;28;20017;-68
2021/03/30 00:49:24;;;;;;;23.15;14.48;;;15.30;61.20;;;;;;5035170;28;20105;-68
2021/03/30 00:51:50;;;;;;;29.02;15.93;;;15.30;61.30;;;;;;5034857;28;20094;-71
2021/03/30 00:54:16;;;;;;;26.15;14.95;;;15.40;60.80;;;;;;5035012;28;20379;-68
2021/03/30 00:56:42;;;;;;;27.38;14.77;;;15.50;60.50;;;;;;5034688;28;20436;-67
2021/03/30 00:59:08;;;;;;;26.65;14.30;;;15.40;60.30;;;;;;5034755;28;20037;-69
2021/03/30 01:01:34;;;;;;;24.08;13.75;;;15.30;60.90;;;;;;5034802;28;20017;-68
2021/03/30 01:04:00;;;;;;;21.33;14.32;;;15.30;61.00;;;;;;5034855;28;20052;-69
2021/03/30 01:06:27;;;;;;;25.98;14.75;;;15.40;60.90;;;;;;5033512;28;20030;-70
2021/03/30 01:09:17;;;;;;;23.10;14.68;;;15.40;60.70;;;;;;5034514;28;20509;-69
2021/03/30 01:11:51;;;;;;;24.83;15.48;;;15.40;61.10;;;;;;5034483;28;20021;-69
2021/03/30 01:14:41;;;;;;;27.27;15.50;;;15.20;60.90;;;;;;5034706;28;20029;-71
2021/03/30 01:17:22;;;;;;;26.80;16.00;;;15.20;61.60;;;;;;5034291;28;20140;-68
2021/03/30 01:20:03;;;;;;;24.95;14.63;;;15.10;60.80;;;;;;5034467;28;20064;-69
2021/03/30 01:22:29;;;;;;;26.30;14.57;;;15.10;61.20;;;;;;5034612;28;20033;-71
2021/03/30 01:25:00;;;;;;;23.63;14.90;;;15.00;61.50;;;;;;5034503;28;20028;-68
2021/03/30 01:27:58;;;;;;;21.58;14.18;;;15.00;61.20;;;;;;5034387;28;20029;-68
2021/03/30 01:30:25;;;;;;;27.33;15.25;;;14.90;61.30;;;;;;5034526;28;20108;-70
2021/03/30 01:32:57;;;;;;;20.48;14.25;;;14.90;61.40;;;;;;5034158;28;20026;-69
2021/03/30 01:35:25;;;;;;;26.75;14.38;;;15.00;61.10;;;;;;5034191;28;20104;-68
2021/03/30 01:37:53;;;;;;;21.63;13.77;;;14.90;60.80;;;;;;5032585;28;20037;-67
2021/03/30 01:40:25;;;;;;;24.85;14.38;;;14.90;60.70;;;;;;5033949;28;20029;-68
2021/03/30 01:42:52;;;;;;;21.17;13.52;;;15.00;60.60;;;;;;5034091;28;20029;-69
2021/03/30 01:45:21;;;;;;;19.08;13.95;;;14.90;60.60;;;;;;5033887;28;20474;-69
2021/03/30 01:47:49;;;;;;;23.13;13.90;;;14.90;60.40;;;;;;5033946;28;20470;-66
2021/03/30 01:50:15;;;;;;;24.38;14.30;;;14.90;60.10;;;;;;5033764;28;20020;-67
2021/03/30 01:52:41;;;;;;;23.42;14.30;;;14.80;60.00;;;;;;5033783;28;20144;-68
2021/03/30 01:55:09;;;;;;;21.88;14.07;;;14.80;59.70;;;;;;5032590;28;20379;-69
2021/03/30 01:57:37;;;;;;;25.17;14.20;;;14.80;59.90;;;;;;5033592;28;20103;-67
2021/03/30 02:00:07;;;;;;;19.48;13.95;;;14.80;60.00;;;;;;5033673;28;20025;-69
2021/03/30 02:02:33;;;;;;;24.85;14.75;;;14.80;60.10;;;;;;5033626;28;20068;-68
2021/03/30 02:05:00;;;;;;;26.60;14.80;;;14.70;60.10;;;;;;5033674;28;20022;-68
2021/03/30 02:07:27;;;;;;;23.88;13.40;;;14.50;60.40;;;;;;5033941;28;20026;-68
2021/03/30 02:09:57;;;;;;;27.35;14.13;;;14.50;60.90;;;;;;5034016;28;20024;-68
2021/03/30 02:12:29;;;;;;;22.33;14.68;;;14.60;61.10;;;;;;5032196;28;20025;-68
2021/03/30 02:14:55;;;;;;;27.77;15.80;;;14.50;60.60;;;;;;5033462;28;20035;-67
2021/03/30 02:17:23;;;;;;;30.45;16.02;;;14.40;60.80;;;;;;5033224;28;20452;-68
2021/03/30 02:19:57;;;;;;;24.08;14.80;;;14.40;61.50;;;;;;5033077;28;20033;-67
2021/03/30 02:22:31;;;;;;;23.10;15.52;;;14.50;61.30;;;;;;5033585;28;20021;-68
2021/03/30 02:25:01;;;;;;;23.77;15.73;;;14.60;61.60;;;;;;5033583;28;20063;-67
2021/03/30 02:27:28;;;;;;;30.00;15.75;;;14.70;61.40;;;;;;5033288;28;20026;-67
2021/03/30 02:29:56;;;;;;;25.27;15.80;;;14.50;61.10;;;;;;5033365;28;20105;-67
2021/03/30 02:32:24;;;;;;;23.83;16.05;;;14.50;61.50;;;;;;5033417;28;20479;-67
2021/03/30 02:34:52;;;;;;;23.55;14.70;;;14.60;61.70;;;;;;5033267;28;20029;-68
2021/03/30 02:37:19;;;;;;;22.33;15.68;;;14.60;61.30;;;;;;5031781;28;20038;-68
2021/03/30 02:39:47;;;;;;;25.77;15.15;;;14.40;61.50;;;;;;5033178;28;20049;-66
2021/03/30 02:42:15;;;;;;;26.20;15.32;;;14.30;62.20;;;;;;5033172;28;20162;-67
2021/03/30 02:44:41;;;;;;;26.58;16.77;;;14.40;62.70;;;;;;5033171;28;20577;-67
2021/03/30 02:47:09;;;;;;;21.77;15.27;;;14.50;62.30;;;;;;5033133;28;20025;-67
2021/03/30 02:49:35;;;;;;;21.08;14.38;;;14.60;62.10;;;;;;5033196;28;20107;-68
2021/03/30 02:52:02;;;;;;;25.70;16.48;;;14.70;62.00;;;;;;5033150;28;20044;-67
2021/03/30 02:54:29;;;;;;;25.00;16.10;;;14.60;61.90;;;;;;5033055;28;20033;-68
2021/03/30 02:57:00;;;;;;;34.53;15.50;;;14.70;61.80;;;;;;5032978;28;20029;-68
2021/03/30 02:59:28;;;;;;;26.27;15.90;;;14.60;61.90;;;;;;5032935;28;20030;-67
2021/03/30 03:01:56;;;;;;;24.55;15.80;;;14.50;62.50;;;;;;5032947;28;20028;-68
2021/03/30 03:04:22;;;;;;;23.23;15.13;;;14.70;62.60;;;;;;5033382;28;20024;-66
2021/03/30 03:06:48;;;;;;;23.27;15.52;;;14.70;62.40;;;;;;5033372;28;20030;-67
2021/03/30 03:09:15;;;;;;;22.52;15.05;;;14.70;62.40;;;;;;5033085;28;20030;-68
2021/03/30 03:11:43;;;;;;;28.55;16.33;;;14.70;62.60;;;;;;5033079;28;20076;-67
2021/03/30 03:14:10;;;;;;;22.38;15.38;;;14.60;62.70;;;;;;5033027;28;20560;-67
2021/03/30 03:16:38;;;;;;;22.88;15.38;;;14.70;62.70;;;;;;5032437;28;20137;-67
2021/03/30 03:19:08;;;;;;;23.90;15.73;;;14.70;62.60;;;;;;5031733;28;20033;-67
2021/03/30 03:21:35;;;;;;;24.73;16.35;;;14.60;62.70;;;;;;5032769;28;20026;-67
2021/03/30 03:24:02;;;;;;;32.67;16.20;;;14.60;63.00;;;;;;5032807;28;20021;-67
2021/03/30 03:26:28;;;;;;;23.60;15.02;;;14.60;63.00;;;;;;5032872;28;20068;-67
2021/03/30 03:28:54;;;;;;;24.00;15.65;;;14.50;63.00;;;;;;5032727;28;20026;-67
2021/03/30 03:31:29;;;;;;;22.77;15.55;;;14.50;63.00;;;;;;5034461;28;20021;-67
2021/03/30 03:34:01;;;;;;;30.10;15.73;;;14.50;63.40;;;;;;5036550;28;20494;-67
2021/03/30 03:36:38;;;;;;;26.70;15.55;;;14.30;62.90;;;;;;5036343;28;20055;-68
2021/03/30 03:39:06;;;;;;;23.42;15.63;;;14.30;63.70;;;;;;5036329;28;20033;-68
2021/03/30 03:41:32;;;;;;;24.05;15.85;;;14.30;63.60;;;;;;5036043;28;20029;-66
2021/03/30 03:43:58;;;;;;;21.83;14.73;;;14.30;63.50;;;;;;5036073;28;20431;-69
2021/03/30 03:46:24;;;;;;;25.90;15.30;;;14.30;63.00;;;;;;5036238;28;20021;-67
2021/03/30 03:48:49;;;;;;;27.35;15.85;;;14.40;63.50;;;;;;5036300;28;20052;-67
2021/03/30 03:51:16;;;;;;;22.23;14.85;;;14.30;63.20;;;;;;5034771;28;20021;-67
2021/03/30 03:53:44;;;;;;;28.92;16.10;;;14.20;63.30;;;;;;5035872;28;20032;-68
2021/03/30 03:56:11;;;;;;;30.58;15.43;;;14.10;63.40;;;;;;5036131;28;20478;-69
2021/03/30 03:58:42;;;;;;;22.38;14.73;;;14.10;63.60;;;;;;5035952;28;20045;-68
2021/03/30 04:01:13;;;;;;;29.98;15.52;;;14.10;63.70;;;;;;5036214;28;20496;-69
2021/03/30 04:03:48;;;;;;;21.33;14.32;;;14.00;63.50;;;;;;5036007;28;20035;-67
2021/03/30 04:06:22;;;;;;;24.90;15.13;;;14.00;64.00;;;;;;5035797;28;20051;-68
2021/03/30 04:08:56;;;;;;;24.02;15.38;;;14.00;63.50;;;;;;5035887;28;20029;-66
2021/03/30 04:11:23;;;;;;;27.77;15.73;;;13.80;63.60;;;;;;5035766;28;20026;-67
2021/03/30 04:13:51;;;;;;;24.77;14.18;;;13.80;63.80;;;;;;5035693;28;20087;-66
2021/03/30 04:16:17;;;;;;;21.63;15.43;;;13.80;63.70;;;;;;5035437;28;20099;-68
2021/03/30 04:18:44;;;;;;;24.00;15.43;;;14.00;63.60;;;;;;5035527;28;20109;-69
2021/03/30 04:21:19;;;;;;;24.67;15.50;;;14.00;63.50;;;;;;5035340;28;20018;-68
2021/03/30 04:23:45;;;;;;;26.58;15.75;;;14.00;63.10;;;;;;5035598;28;20108;-68
2021/03/30 04:26:12;;;;;;;22.65;16.05;;;14.10;63.10;;;;;;5035582;28;20033;-68
2021/03/30 04:28:38;;;;;;;29.77;16.40;;;14.00;62.90;;;;;;5035639;28;20197;-68
2021/03/30 04:31:05;;;;;;;30.42;15.88;;;14.00;62.90;;;;;;5035284;28;20022;-68
2021/03/30 04:33:31;;;;;;;23.15;15.07;;;13.90;63.20;;;;;;5035201;28;20522;-68
2021/03/30 04:35:57;;;;;;;25.45;16.15;;;13.90;63.20;;;;;;5035411;28;20048;-67
2021/03/30 04:38:23;;;;;;;23.38;14.98;;;13.90;63.20;;;;;;5035446;28;20124;-67
2021/03/30 04:40:53;;;;;;;24.52;15.88;;;13.90;63.10;;;;;;5035193;28;20025;-67
2021/03/30 04:43:21;;;;;;;29.48;16.30;;;13.80;63.00;;;;;;5034568;28;20033;-66
2021/03/30 04:45:47;;;;;;;22.70;16.02;;;13.90;62.90;;;;;;5035364;28;20026;-66
2021/03/30 04:48:13;;;;;;;24.70;15.30;;;14.00;62.90;;;;;;5035427;28;20079;-66
2021/03/30 04:50:39;;;;;;;21.85;15.27;;;13.90;63.40;;;;;;5034944;28;20087;-68
2021/03/30 04:53:04;;;;;;;26.77;15.48;;;13.80;63.00;;;;;;5035060;28;20490;-67
2021/03/30 04:55:30;;;;;;;27.13;15.52;;;13.70;63.10;;;;;;5034937;28;20028;-67
2021/03/30 04:57:56;;;;;;;27.08;15.30;;;13.70;63.30;;;;;;5035135;28;20486;-68
2021/03/30 05:00:22;;;;;;;22.05;15.38;;;13.60;63.00;;;;;;5034936;28;20441;-68
2021/03/30 05:02:47;;;;;;;25.33;15.13;;;13.60;63.50;;;;;;5034981;28;20026;-69
2021/03/30 05:05:14;;;;;;;25.85;14.73;;;13.50;63.20;;;;;;5034920;28;20462;-68
2021/03/30 05:07:39;;;;;;;24.33;14.75;;;13.50;63.40;;;;;;5034780;28;20349;-72
2021/03/30 05:10:06;;;;;;;24.85;15.50;;;13.60;63.30;;;;;;5035039;28;20034;-67
2021/03/30 05:12:32;;;;;;;22.15;14.07;;;13.70;62.90;;;;;;5034906;28;20115;-68
2021/03/30 05:14:58;;;;;;;24.42;14.98;;;13.70;63.00;;;;;;5034334;28;20430;-68
2021/03/30 05:17:23;;;;;;;22.67;13.85;;;13.70;62.90;;;;;;5034362;28;20025;-67
2021/03/30 05:19:49;;;;;;;20.42;15.35;;;13.80;62.80;;;;;;5034514;28;20084;-67
2021/03/30 05:22:15;;;;;;;25.98;14.70;;;13.70;62.50;;;;;;5035170;28;20024;-67
2021/03/30 05:24:41;;;;;;;26.58;15.93;;;13.70;62.50;;;;;;5034454;28;20033;-69
2021/03/30 05:27:07;;;;;;;26.85;16.08;;;13.70;62.50;;;;;;5034351;28;20090;-68
2021/03/30 05:29:43;;;;;;;26.83;16.63;;;13.80;62.40;;;;;;5032816;28;20037;-68
2021/03/30 05:32:14;;;;;;;20.98;14.23;;;13.80;62.30;;;;;;5034004;28;20367;-69
2021/03/30 05:34:41;;;;;;;22.05;13.23;;;13.70;62.30;;;;;;5034269;28;20441;-69
2021/03/30 05:37:07;;;;;;;23.92;14.20;;;13.70;62.20;;;;;;5034105;28;20074;-68
2021/03/30 05:39:33;;;;;;;21.50;13.73;;;13.70;61.80;;;;;;5034061;28;20030;-69
2021/03/30 05:41:59;;;;;;;23.00;14.35;;;13.70;62.00;;;;;;5033847;28;20025;-70
2021/03/30 05:44:27;;;;;;;21.40;13.90;;;13.80;62.10;;;;;;5033674;28;20033;-69
2021/03/30 05:49:39;;;;;;;25.90;14.68;;;13.80;61.80;;;;;;5033798;28;20036;-68
2021/03/30 05:52:14;;;;;;;25.70;14.88;;;13.80;62.20;;;;;;5033950;28;20076;-68
2021/03/30 05:54:43;;;;;;;24.65;13.77;;;13.70;62.10;;;;;;5032938;28;20368;-69
2021/03/30 05:57:12;;;;;;;28.77;13.70;;;13.80;62.40;;;;;;5033767;28;20033;-69
2021/03/30 05:59:41;;;;;;;22.30;14.30;;;14.00;62.20;;;;;;5033863;28;20512;-68
2021/03/30 06:02:23;;;;;;;26.75;13.85;;;14.00;61.80;;;;;;5033411;28;20018;-67
2021/03/30 06:04:50;;;;;;;23.42;13.80;;;14.10;62.20;;;;;;5033699;28;20030;-67
2021/03/30 06:07:17;;;;;;;21.48;14.95;;;14.20;61.60;;;;;;5033450;28;20079;-69
2021/03/30 06:09:46;;;;;;;24.70;12.95;;;14.40;61.50;;;;;;5033616;28;20030;-72
2021/03/30 06:12:14;;;;;;;22.85;12.65;;;14.50;61.10;;;;;;5033367;28;20029;-68
2021/03/30 06:14:42;;;;;;;24.90;13.60;;;14.60;60.50;;;;;;5033656;28;20032;-68
2021/03/30 06:17:10;;;;;;;21.88;13.27;;;14.60;60.70;;;;;;5033211;28;20398;-68
2021/03/30 06:19:54;;;;;;;26.70;12.50;;;14.70;60.50;;;;;;5033167;28;20025;-70
2021/03/30 06:22:25;;;;;;;20.55;12.55;;;14.80;60.20;;;;;;5033512;28;20028;-67
2021/03/30 06:24:52;;;;;;;19.33;12.27;;;15.00;59.90;;;;;;5033307;28;20034;-69
2021/03/30 06:27:24;;;;;;;18.77;12.88;;;15.10;59.40;;;;;;5033097;28;20378;-69
2021/03/30 06:29:52;;;;;;;23.55;12.32;;;15.30;58.90;;;;;;5033212;28;20022;-70
2021/03/30 06:32:20;;;;;;;25.15;11.77;;;15.40;58.50;;;;;;5033295;28;20017;-67
2021/03/30 06:34:49;;;;;;;19.95;11.65;;;15.50;57.50;;;;;;5033309;28;20026;-69
2021/03/30 06:37:40;;;;;;;22.08;11.70;;;15.60;57.80;;;;;;5032952;28;20042;-70
2021/03/30 06:40:21;;;;;;;22.65;11.35;;;15.70;57.50;;;;;;5032927;28;20079;-68
2021/03/30 06:42:54;;;;;;;18.13;11.52;;;15.90;57.10;;;;;;5032916;28;20029;-68
2021/03/30 06:45:30;;;;;;;26.70;11.50;;;16.00;57.30;;;;;;5032833;28;20026;-67
2021/03/30 06:48:01;;;;;;;24.17;11.73;;;16.10;56.60;;;;;;5031216;28;20108;-69
2021/03/30 06:50:33;;;;;;;17.60;11.27;;;16.20;56.40;;;;;;5032815;28;20029;-69
2021/03/30 06:53:18;;;;;;;18.60;10.98;;;16.40;56.30;;;;;;5032779;28;20071;-69
2021/03/30 06:55:52;;;;;;;18.30;10.45;;;16.40;55.90;;;;;;5032589;28;20077;-71
2021/03/30 06:58:21;;;;;;;22.35;10.52;;;16.50;55.70;;;;;;5031551;28;20225;-69
2021/03/30 07:00:47;;;;;;;16.63;10.93;;;16.70;55.50;;;;;;5032731;28;20030;-70
2021/03/30 07:03:19;;;;;;;16.77;10.15;;;16.80;53.80;;;;;;5032496;28;20053;-67
2021/03/30 07:05:47;;;;;;;18.38;10.45;;;16.80;53.60;;;;;;5033437;28;20063;-73
2021/03/30 07:08:18;;;;;;;17.75;10.80;;;16.90;53.00;;;;;;5036337;28;20451;-68
2021/03/30 07:10:49;;;;;;;20.17;9.85;;;17.00;53.00;;;;;;5036389;28;20025;-69
2021/03/30 07:13:17;;;;;;;21.60;11.05;;;16.90;52.50;;;;;;5036534;28;20055;-69
2021/03/30 07:15:43;;;;;;;15.65;9.45;;;17.00;52.50;;;;;;5036490;28;20077;-70
2021/03/30 07:18:27;;;;;;;14.55;9.23;;;17.10;52.20;;;;;;5036316;28;20076;-68
2021/03/30 07:21:19;;;;;;;18.08;10.30;;;17.10;51.80;;;;;;5036519;28;20485;-71
2021/03/30 07:23:51;;;;;;;19.45;9.77;;;17.20;51.60;;;;;;5033100;28;20037;-72
2021/03/30 07:26:23;;;;;;;16.50;8.25;;;17.30;51.30;;;;;;5036271;28;20030;-69
2021/03/30 07:29:36;;;;;;;20.70;10.45;;;17.30;51.00;;;;;;5036426;28;20053;-70
2021/03/30 07:32:06;;;;;;;18.25;8.90;;;17.40;50.30;;;;;;5036603;28;20029;-68
2021/03/30 07:34:58;;;;;;;18.40;9.13;;;17.40;50.30;;;;;;5036361;28;20033;-67
2021/03/30 07:37:59;;;;;;;22.27;9.30;;;17.50;50.20;;;;;;5036198;28;20042;-69
2021/03/30 07:40:25;;;;;;;14.45;9.30;;;17.70;50.10;;;;;;5036036;28;20133;-70
2021/03/30 07:42:52;;;;;;;15.90;8.95;;;17.80;50.30;;;;;;5036502;28;20024;-70
2021/03/30 07:45:29;;;;;;;16.48;8.98;;;17.80;50.00;;;;;;5036195;28;20026;-72
2021/03/30 07:47:57;;;;;;;18.30;9.30;;;17.90;50.00;;;;;;5036379;28;20030;-68
2021/03/30 07:50:24;;;;;;;16.25;9.48;;;18.00;50.60;;;;;;5035973;28;20116;-70
2021/03/30 07:52:53;;;;;;;18.42;10.55;;;18.10;50.20;;;;;;5035736;28;20029;-71
2021/03/30 07:55:20;;;;;;;17.75;9.40;;;18.20;50.50;;;;;;5035644;28;20025;-69
2021/03/30 07:57:59;;;;;;;17.17;9.30;;;18.20;50.40;;;;;;5035578;28;20069;-68
2021/03/30 08:00:31;;;;;;;15.60;9.73;;;18.30;50.30;;;;;;5034416;28;20025;-68
2021/03/30 08:03:11;;;;;;;20.42;9.18;;;18.30;50.30;;;;;;5035642;28;20074;-72
2021/03/30 08:05:37;;;;;;;20.00;11.32;;;18.30;50.30;;;;;;5035609;28;20076;-69
2021/03/30 08:08:23;;;;;;;18.33;11.10;;;18.20;50.10;;;;;;5035380;28;20068;-68
2021/03/30 08:10:53;;;;;;;21.15;11.43;;;18.10;49.90;;;;;;5035302;28;20025;-72
2021/03/30 08:13:23;;;;;;;21.13;10.30;;;18.10;50.00;;;;;;5035673;28;20021;-70
2021/03/30 08:15:51;;;;;;;17.33;9.95;;;18.00;50.40;;;;;;5035785;28;20167;-72
2021/03/30 08:18:18;;;;;;;21.73;10.07;;;18.00;50.60;;;;;;5032975;28;20029;-71
2021/03/30 08:20:55;;;;;;;18.83;10.15;;;18.00;50.50;;;;;;5034917;28;20053;-70
2021/03/30 08:23:21;;;;;;;18.38;9.43;;;18.00;49.80;;;;;;5035265;28;20026;-73
2021/03/30 08:25:49;;;;;;;22.55;8.55;;;18.00;50.60;;;;;;5035414;28;20028;-71
2021/03/30 08:28:53;;;;;;;23.45;8.27;;;18.00;50.40;;;;;;5035058;28;20034;-70
2021/03/30 08:31:26;;;;;;;16.02;6.97;;;18.10;48.80;;;;;;5034795;28;20065;-72
2021/03/30 08:33:55;;;;;;;19.38;8.40;;;18.10;48.50;;;;;;5035109;28;20079;-71
2021/03/30 08:36:48;;;;;;;24.80;9.10;;;18.10;48.50;;;;;;5035103;28;20075;-71
2021/03/30 08:39:23;;;;;;;14.75;7.55;;;18.20;48.70;;;;;;5034852;28;20037;-73
2021/03/30 08:42:08;;;;;;;15.55;7.75;;;18.20;47.50;;;;;;5034845;28;20100;-69
2021/03/30 08:45:03;;;;;;;13.95;7.45;;;18.30;47.60;;;;;;5034964;28;20033;-72
2021/03/30 08:47:40;;;;;;;16.08;8.57;;;18.30;47.30;;;;;;5034907;28;20585;-71
2021/03/30 08:50:24;;;;;;;35.47;21.27;;;18.30;48.10;;;;;;5034598;28;20052;-72
2021/03/30 08:52:56;;;;;;;21.35;8.93;;;18.30;47.10;;;;;;5035269;28;20441;-73
2021/03/30 08:55:37;;;;;;;21.52;9.27;;;18.30;48.40;;;;;;5034942;28;20029;-71
2021/03/30 08:58:03;;;;;;;17.73;7.97;;;18.40;48.30;;;;;;5035460;28;20034;-71
2021/03/30 09:00:29;;;;;;;16.40;7.60;;;18.50;48.60;;;;;;5034295;28;20091;-71
2021/03/30 09:03:03;;;;;;;13.60;7.25;;;18.50;48.40;;;;;;5034453;28;20025;-70
2021/03/30 09:05:38;;;;;;;17.17;7.47;;;18.60;47.20;;;;;;5034189;28;20620;-69
2021/03/30 09:08:05;;;;;;;15.20;7.55;;;18.60;47.40;;;;;;5034032;28;20032;-70
2021/03/30 09:10:31;;;;;;;15.65;7.78;;;18.70;48.10;;;;;;5034174;28;20482;-71
2021/03/30 09:13:14;;;;;;;15.35;7.50;;;18.70;47.90;;;;;;5033863;28;20036;-69
2021/03/30 09:15:40;;;;;;;13.23;7.28;;;18.80;47.90;;;;;;5033875;28;20057;-71
2021/03/30 09:18:07;;;;;;;12.75;7.07;;;18.80;48.10;;;;;;5034167;28;20038;-71
2021/03/30 09:20:34;;;;;;;29.15;11.88;;;18.90;47.90;;;;;;5033829;28;20027;-70
2021/03/30 09:23:12;;;;;;;15.10;7.10;;;18.90;48.20;;;;;;5034157;28;20026;-70
2021/03/30 09:25:41;;;;;;;13.35;7.28;;;19.00;47.20;;;;;;5034112;28;20049;-70
2021/03/30 09:28:16;;;;;;;15.43;6.80;;;19.10;47.80;;;;;;5034018;28;20021;-70
2021/03/30 09:30:46;;;;;;;14.50;6.50;;;19.10;47.30;;;;;;5033601;28;20021;-70
2021/03/30 09:33:13;;;;;;;12.48;7.05;;;19.20;47.30;;;;;;5033999;28;20022;-69
2021/03/30 09:35:38;;;;;;;14.80;6.88;;;19.20;47.10;;;;;;5033962;28;20029;-69
2021/03/30 09:38:05;;;;;;;13.38;7.47;;;19.30;47.00;;;;;;5033885;28;20040;-70
2021/03/30 09:40:35;;;;;;;14.10;7.43;;;19.40;46.80;;;;;;5033824;28;20036;-71
2021/03/30 09:43:04;;;;;;;14.80;7.45;;;19.40;45.90;;;;;;5033862;28;20116;-70
2021/03/30 09:45:32;;;;;;;15.18;7.25;;;19.50;46.40;;;;;;5034009;28;20026;-69
2021/03/30 09:47:59;;;;;;;12.73;7.13;;;19.60;45.90;;;;;;5033374;28;20043;-70
2021/03/30 09:50:27;;;;;;;17.25;7.00;;;19.60;45.90;;;;;;5033738;28;20025;-68
2021/03/30 09:52:53;;;;;;;13.90;7.20;;;19.70;46.00;;;;;;5033770;28;20398;-67
2021/03/30 09:55:36;;;;;;;11.95;7.18;;;19.80;45.70;;;;;;5033849;28;20025;-69
2021/03/30 09:58:14;;;;;;;19.77;8.07;;;19.90;45.90;;;;;;5033527;28;20501;-69
2021/03/30 10:00:43;;;;;;;13.75;7.13;;;20.00;44.70;;;;;;5033423;28;20322;-71
2021/03/30 10:03:10;;;;;;;16.15;7.88;;;20.10;45.60;;;;;;5033851;28;20029;-70
2021/03/30 10:05:37;;;;;;;13.48;7.80;;;20.20;45.40;;;;;;5033431;28;20048;-70
2021/03/30 10:08:04;;;;;;;13.40;7.90;;;20.30;44.80;;;;;;5033611;28;20029;-69
2021/03/30 10:10:43;;;;;;;13.10;7.97;;;20.30;44.40;;;;;;5033444;28;20025;-67
2021/03/30 10:13:29;;;;;;;15.45;8.20;;;20.40;44.50;;;;;;5033442;28;20056;-69
2021/03/30 10:16:00;;;;;;;15.25;7.68;;;20.50;43.60;;;;;;5033241;28;20038;-69
2021/03/30 10:18:27;;;;;;;16.33;7.45;;;20.60;44.20;;;;;;5033451;28;20037;-72
2021/03/30 10:21:15;;;;;;;15.60;7.20;;;20.70;44.00;;;;;;5033220;28;20037;-71
2021/03/30 10:23:44;;;;;;;13.75;7.07;;;20.80;43.40;;;;;;5031789;28;20405;-69
2021/03/30 10:26:12;;;;;;;10.18;6.00;;;20.90;43.40;;;;;;5031883;28;20497;-72
2021/03/30 10:28:38;;;;;;;11.02;6.88;;;21.00;43.30;;;;;;5033256;28;20442;-72
2021/03/30 10:31:07;;;;;;;12.57;6.47;;;21.10;43.00;;;;;;5033378;28;20096;-71
2021/03/30 10:33:42;;;;;;;10.20;6.57;;;21.10;43.00;;;;;;5032939;28;20092;-71
2021/03/30 10:36:10;;;;;;;16.80;6.55;;;21.20;43.00;;;;;;5033052;28;20392;-70
2021/03/30 10:38:37;;;;;;;16.40;7.90;;;21.20;42.80;;;;;;5032970;28;20037;-71
2021/03/30 10:41:05;;;;;;;16.92;9.35;;;21.40;42.60;;;;;;5032502;28;20405;-70
2021/03/30 10:43:31;;;;;;;21.52;9.02;;;21.40;42.20;;;;;;5031968;28;20029;-69
2021/03/30 10:45:57;;;;;;;14.02;8.52;;;21.60;42.10;;;;;;5033342;28;20418;-70
2021/03/30 10:48:23;;;;;;;19.17;8.73;;;21.70;41.80;;;;;;5033163;28;20079;-70
2021/03/30 10:50:52;;;;;;;17.98;9.05;;;21.70;41.20;;;;;;5033074;28;20021;-69
2021/03/30 10:53:18;;;;;;;12.07;7.63;;;21.80;41.00;;;;;;5033096;28;20080;-72
2021/03/30 10:55:44;;;;;;;11.93;7.07;;;21.80;40.80;;;;;;5033083;28;20471;-69
2021/03/30 10:58:13;;;;;;;23.63;7.53;;;21.90;40.80;;;;;;5033003;28;20041;-70
2021/03/30 11:00:38;;;;;;;19.83;6.45;;;22.00;40.20;;;;;;5032705;28;20024;-69
2021/03/30 11:03:05;;;;;;;12.57;5.97;;;22.10;39.20;;;;;;5032884;28;20033;-68
2021/03/30 11:05:32;;;;;;;10.93;5.85;;;22.20;38.20;;;;;;5033064;28;20489;-70
2021/03/30 11:07:57;;;;;;;20.00;8.07;;;22.20;38.00;;;;;;5032830;28;20028;-68
2021/03/30 11:10:25;;;;;;;11.63;5.28;;;22.40;37.50;;;;;;5031302;28;20025;-70
2021/03/30 11:12:53;;;;;;;12.10;5.18;;;22.50;35.90;;;;;;5032708;28;20025;-71
2021/03/30 11:15:19;;;;;;;12.85;6.35;;;22.50;35.70;;;;;;5032686;28;20072;-70
2021/03/30 11:17:45;;;;;;;11.55;5.40;;;22.60;36.10;;;;;;5032522;28;20068;-70
2021/03/30 11:20:13;;;;;;;11.40;4.45;;;22.70;35.80;;;;;;5032917;28;20129;-70
2021/03/30 11:22:42;;;;;;;9.48;4.85;;;22.80;34.90;;;;;;5032571;28;20024;-70
2021/03/30 11:25:10;;;;;;;12.32;5.75;;;22.80;35.60;;;;;;5033092;28;20025;-68
2021/03/30 11:27:37;;;;;;;10.63;5.05;;;22.90;34.40;;;;;;5032421;28;20401;-70
2021/03/30 11:32:40;;;;;;;10.15;5.30;;;23.00;34.30;;;;;;5033095;28;20029;-74
2021/03/30 11:35:23;;;;;;;9.88;4.68;;;23.10;33.70;;;;;;5032860;28;20451;-72
2021/03/30 11:38:05;;;;;;;8.13;4.30;;;23.10;33.80;;;;;;5032760;28;20132;-69
2021/03/30 11:40:31;;;;;;;10.80;4.30;;;23.20;33.80;;;;;;5032511;28;20493;-71
2021/03/30 11:42:57;;;;;;;9.82;4.88;;;23.30;33.80;;;;;;5032716;28;20017;-69
2021/03/30 11:45:23;;;;;;;11.27;4.50;;;23.40;34.20;;;;;;5032399;28;20033;-71
2021/03/30 11:47:48;;;;;;;7.68;3.85;;;23.50;33.90;;;;;;5032464;28;20383;-70
2021/03/30 11:50:14;;;;;;;9.57;4.43;;;23.50;33.80;;;;;;5032529;28;20044;-73
2021/03/30 11:52:40;;;;;;;14.60;4.03;;;23.60;33.50;;;;;;5033347;28;20017;-72
2021/03/30 11:55:06;;;;;;;9.38;3.35;;;23.60;33.40;;;;;;5036205;28;20026;-70
2021/03/30 11:57:32;;;;;;;10.10;4.50;;;23.60;32.30;;;;;;5035942;28;20482;-77
2021/03/30 11:59:58;;;;;;;7.60;3.42;;;23.70;32.10;;;;;;5035828;28;20026;-71
2021/03/30 12:02:24;;;;;;;8.95;3.60;;;23.70;32.10;;;;;;5036158;28;20021;-72
2021/03/30 12:04:49;;;;;;;9.95;4.00;;;23.70;32.10;;;;;;5035896;28;20459;-74
2021/03/30 12:07:15;;;;;;;9.27;4.50;;;23.70;31.80;;;;;;5036080;28;20025;-71
2021/03/30 12:09:41;;;;;;;7.72;3.55;;;23.80;32.10;;;;;;5035760;28;20025;-71
2021/03/30 12:12:07;;;;;;;9.23;3.45;;;23.80;32.30;;;;;;5035552;28;20025;-73
2021/03/30 12:14:32;;;;;;;11.73;3.53;;;23.90;31.70;;;;;;5035871;28;20100;-72
2021/03/30 12:16:58;;;;;;;11.65;3.83;;;23.90;31.30;;;;;;5035328;28;20396;-72
2021/03/30 12:19:24;;;;;;;7.65;3.80;;;24.00;31.50;;;;;;5036019;28;20052;-72
2021/03/30 12:21:52;;;;;;;8.45;3.67;;;24.10;31.40;;;;;;5035889;28;20021;-69
2021/03/30 12:24:18;;;;;;;10.27;3.80;;;24.20;31.30;;;;;;5035649;28;20041;-69
2021/03/30 12:26:43;;;;;;;8.90;3.60;;;24.30;31.90;;;;;;5035877;28;20026;-72
2021/03/30 12:29:09;;;;;;;7.50;4.22;;;24.40;32.10;;;;;;5035457;28;20036;-69
2021/03/30 12:31:35;;;;;;;10.77;4.10;;;24.40;32.60;;;;;;5035505;28;20022;-69
2021/03/30 12:34:01;;;;;;;13.35;4.57;;;24.50;32.10;;;;;;5035549;28;20045;-70
2021/03/30 12:36:27;;;;;;;14.85;6.07;;;24.50;33.30;;;;;;5035465;28;20132;-71
2021/03/30 12:38:54;;;;;;;16.20;6.28;;;24.50;35.10;;;;;;5035233;28;20033;-70
2021/03/30 12:41:20;;;;;;;14.35;6.72;;;24.50;36.50;;;;;;5035199;28;20092;-71
2021/03/30 12:43:46;;;;;;;14.60;6.35;;;24.50;37.10;;;;;;5033762;28;20034;-71
2021/03/30 12:46:12;;;;;;;12.93;6.03;;;24.50;37.70;;;;;;5035063;28;20047;-70
2021/03/30 12:48:38;;;;;;;15.52;6.68;;;24.50;38.20;;;;;;5035135;28;20037;-72